createdAt,value
2023-03-04T00:00:01.207Z,53.95
2023-03-04T00:02:28.080Z,55.83
2023-03-04T00:04:55.205Z,53.05
2023-03-04T00:07:22.144Z,54.30
2023-03-04T00:09:48.929Z,55.83
2023-03-04T00:12:15.660Z,52.55
2023-03-04T00:14:42.650Z,53.08
2023-03-04T00:17:09.465Z,51.67
2023-03-04T00:19:36.516Z,53.85
2023-03-04T00:22:04.615Z,48.38
2023-03-04T00:24:32.623Z,51.63
2023-03-04T00:26:59.658Z,50.65
2023-03-04T00:29:26.859Z,50.90
2023-03-04T00:31:54.137Z,49.88
2023-03-04T00:34:21.737Z,53.00
2023-03-04T00:36:48.634Z,51.28
2023-03-04T00:39:15.809Z,50.38
2023-03-04T00:41:42.767Z,50.65
2023-03-04T00:44:09.629Z,50.45
2023-03-04T00:46:36.550Z,45.13
2023-03-04T00:49:03.368Z,42.35
2023-03-04T00:51:30.226Z,40.72
2023-03-04T00:54:01.038Z,39.15
2023-03-04T00:56:28.250Z,37.38
2023-03-04T00:58:55.550Z,39.28
2023-03-04T01:01:22.580Z,39.28
2023-03-04T01:03:51.361Z,39.53
2023-03-04T01:06:18.288Z,40.08
2023-03-04T01:08:45.256Z,37.90
2023-03-04T01:11:12.403Z,38.60
2023-03-04T01:13:42.100Z,36.08
2023-03-04T01:16:10.300Z,34.70
2023-03-04T01:18:37.594Z,38.70
2023-03-04T01:21:04.622Z,35.97
2023-03-04T01:23:32.716Z,35.55
2023-03-04T01:25:59.600Z,34.78
2023-03-04T01:28:26.420Z,35.00
2023-03-04T01:30:53.272Z,35.88
2023-03-04T01:33:20.033Z,34.00
2023-03-04T01:35:46.916Z,34.10
2023-03-04T01:38:14.500Z,32.45
2023-03-04T01:40:41.273Z,32.75
2023-03-04T01:43:11.416Z,33.53
2023-03-04T01:45:40.268Z,34.40
2023-03-04T01:48:19.484Z,33.97
2023-03-04T01:50:46.495Z,36.10
2023-03-04T01:53:22.877Z,33.80
2023-03-04T01:55:49.972Z,33.78
2023-03-04T01:58:16.750Z,34.75
2023-03-04T02:00:43.861Z,33.70
2023-03-04T02:03:13.958Z,34.13
2023-03-04T02:05:44.116Z,33.28
2023-03-04T02:08:12.265Z,32.30
2023-03-04T02:10:41.622Z,33.80
2023-03-04T02:13:08.577Z,30.90
2023-03-04T02:15:37.632Z,31.30
2023-03-04T02:18:22.271Z,30.58
2023-03-04T02:20:54.712Z,31.73
2023-03-04T02:23:35.242Z,30.65
2023-03-04T02:26:22.364Z,31.00
2023-03-04T02:28:51.535Z,29.52
2023-03-04T02:31:21.122Z,30.25
2023-03-04T02:33:48.110Z,31.58
2023-03-04T02:36:14.911Z,30.17
2023-03-04T02:38:42.045Z,30.83
2023-03-04T02:41:13.838Z,30.10
2023-03-04T02:43:41.016Z,32.15
2023-03-04T02:46:12.602Z,30.05
2023-03-04T02:48:39.649Z,29.55
2023-03-04T02:51:06.519Z,27.88
2023-03-04T02:53:33.422Z,31.17
2023-03-04T02:56:00.562Z,28.63
2023-03-04T02:58:27.577Z,26.60
2023-03-04T03:00:54.561Z,27.23
2023-03-04T03:03:21.481Z,27.17
2023-03-04T03:05:48.466Z,27.95
2023-03-04T03:08:15.371Z,27.05
2023-03-04T03:10:42.285Z,27.50
2023-03-04T03:13:09.258Z,28.33
2023-03-04T03:15:36.519Z,27.35
2023-03-04T03:18:03.464Z,28.05
2023-03-04T03:20:30.299Z,26.27
2023-03-04T03:22:57.181Z,27.45
2023-03-04T03:25:23.963Z,26.73
2023-03-04T03:27:50.702Z,25.98
2023-03-04T03:30:17.736Z,26.42
2023-03-04T03:32:44.630Z,23.52
2023-03-04T03:35:11.896Z,26.63
2023-03-04T03:37:38.725Z,24.23
2023-03-04T03:40:05.954Z,24.65
2023-03-04T03:42:32.888Z,23.65
2023-03-04T03:44:59.826Z,22.38
2023-03-04T03:47:26.901Z,23.08
2023-03-04T03:49:53.927Z,20.63
2023-03-04T03:52:20.763Z,22.02
2023-03-04T03:54:47.538Z,21.23
2023-03-04T03:57:14.572Z,22.23
2023-03-04T03:59:41.755Z,20.13
2023-03-04T04:02:09.058Z,20.35
2023-03-04T04:04:35.927Z,20.30
2023-03-04T04:07:02.737Z,20.30
2023-03-04T04:09:29.556Z,20.35
2023-03-04T04:11:57.247Z,19.42
2023-03-04T04:14:24.155Z,18.67
2023-03-04T04:16:51.009Z,17.15
2023-03-04T04:19:19.638Z,18.45
2023-03-04T04:21:46.913Z,16.98
2023-03-04T04:24:14.153Z,17.02
2023-03-04T04:26:41.510Z,16.08
2023-03-04T04:29:09.348Z,17.38
2023-03-04T04:31:36.270Z,15.10
2023-03-04T04:34:03.160Z,14.93
2023-03-04T04:36:29.999Z,14.20
2023-03-04T04:38:57.667Z,14.00
2023-03-04T04:41:34.916Z,13.57
2023-03-04T04:44:01.728Z,13.57
2023-03-04T04:46:28.622Z,13.90
2023-03-04T04:48:56.041Z,13.95
2023-03-04T04:51:22.955Z,12.73
2023-03-04T04:53:49.891Z,13.23
2023-03-04T04:56:19.461Z,12.15
2023-03-04T04:58:47.311Z,12.65
2023-03-04T05:01:15.450Z,11.98
2023-03-04T05:03:42.711Z,11.88
2023-03-04T05:06:11.335Z,11.73
2023-03-04T05:08:38.443Z,11.40
2023-03-04T05:11:06.788Z,11.55
2023-03-04T05:13:34.281Z,10.98
2023-03-04T05:16:01.758Z,10.93
2023-03-04T05:18:29.214Z,11.80
2023-03-04T05:21:01.593Z,10.88
2023-03-04T05:23:31.254Z,12.05
2023-03-04T05:25:58.135Z,11.77
2023-03-04T05:28:24.948Z,10.30
2023-03-04T05:30:51.953Z,11.70
2023-03-04T05:33:19.771Z,10.65
2023-03-04T05:35:48.857Z,11.65
2023-03-04T05:38:17.403Z,10.73
2023-03-04T05:40:44.534Z,10.35
2023-03-04T05:43:12.495Z,11.07
2023-03-04T05:45:40.062Z,11.52
2023-03-04T05:48:07.950Z,9.77
2023-03-04T05:50:35.230Z,11.98
2023-03-04T05:53:02.006Z,10.88
2023-03-04T05:55:30.183Z,10.82
2023-03-04T05:57:57.379Z,10.75
2023-03-04T06:00:25.081Z,10.93
2023-03-04T06:02:52.418Z,10.30
2023-03-04T06:05:20.156Z,11.18
2023-03-04T06:07:47.156Z,10.40
2023-03-04T06:10:17.397Z,11.15
2023-03-04T06:12:44.269Z,10.73
2023-03-04T06:15:11.894Z,11.60
2023-03-04T06:17:42.899Z,11.13
2023-03-04T06:20:11.506Z,11.35
2023-03-04T06:22:38.581Z,11.30
2023-03-04T06:25:05.865Z,10.05
2023-03-04T06:27:32.765Z,10.43
2023-03-04T06:29:59.594Z,10.35
2023-03-04T06:32:26.646Z,12.13
2023-03-04T06:34:53.467Z,12.40
2023-03-04T06:37:20.324Z,13.30
2023-03-04T06:39:47.225Z,12.50
2023-03-04T06:42:15.134Z,11.43
2023-03-04T06:44:42.147Z,11.75
2023-03-04T06:47:09.055Z,11.68
2023-03-04T06:49:35.864Z,11.10
2023-03-04T06:52:02.826Z,11.23
2023-03-04T06:54:29.875Z,11.18
2023-03-04T06:56:56.601Z,12.10
2023-03-04T06:59:23.623Z,11.95
2023-03-04T07:01:50.542Z,11.65
2023-03-04T07:04:17.444Z,11.45
2023-03-04T07:06:44.404Z,12.35
2023-03-04T07:09:11.585Z,11.85
2023-03-04T07:11:38.441Z,13.30
2023-03-04T07:14:05.325Z,10.73
2023-03-04T07:16:32.275Z,11.02
2023-03-04T07:18:59.519Z,9.68
2023-03-04T07:21:26.323Z,11.77
2023-03-04T07:23:53.289Z,11.40
2023-03-04T07:26:20.555Z,10.10
2023-03-04T07:28:47.493Z,9.77
2023-03-04T07:31:25.321Z,10.13
2023-03-04T07:33:52.522Z,10.38
2023-03-04T07:36:20.310Z,9.70
2023-03-04T07:38:49.139Z,9.35
2023-03-04T07:41:17.009Z,9.60
2023-03-04T07:43:44.448Z,9.70
2023-03-04T07:46:11.937Z,10.23
2023-03-04T07:48:38.927Z,9.13
2023-03-04T07:51:14.175Z,9.27
2023-03-04T07:53:42.833Z,9.77
2023-03-04T07:56:13.835Z,9.40
2023-03-04T07:58:40.778Z,9.55
2023-03-04T08:01:22.028Z,10.80
2023-03-04T08:03:49.213Z,9.35
2023-03-04T08:06:19.089Z,11.13
2023-03-04T08:08:47.564Z,10.38
2023-03-04T08:11:17.620Z,11.02
2023-03-04T08:13:44.908Z,9.57
2023-03-04T08:16:16.674Z,9.98
2023-03-04T08:18:45.243Z,9.60
2023-03-04T08:21:13.756Z,8.45
2023-03-04T08:23:42.545Z,8.15
2023-03-04T08:26:13.534Z,8.68
2023-03-04T08:28:41.048Z,8.68
2023-03-04T08:31:08.365Z,7.85
2023-03-04T08:33:35.344Z,8.02
2023-03-04T08:36:02.342Z,7.63
2023-03-04T08:38:29.295Z,8.20
2023-03-04T08:40:58.408Z,7.18
2023-03-04T08:43:26.814Z,8.15
2023-03-04T08:46:07.000Z,7.07
2023-03-04T08:48:41.291Z,7.65
2023-03-04T08:51:14.260Z,6.50
2023-03-04T08:53:42.142Z,7.05
2023-03-04T08:56:15.945Z,6.00
2023-03-04T08:58:44.173Z,7.45
2023-03-04T09:01:13.170Z,7.90
2023-03-04T09:03:41.063Z,7.95
2023-03-04T09:06:18.732Z,7.18
2023-03-04T09:08:46.265Z,6.97
2023-03-04T09:11:13.667Z,6.97
2023-03-04T09:13:41.302Z,6.13
2023-03-04T09:16:12.862Z,6.28
2023-03-04T09:18:40.570Z,6.35
2023-03-04T09:21:08.871Z,7.22
2023-03-04T09:23:37.863Z,6.82
2023-03-04T09:26:34.454Z,6.60
2023-03-04T09:29:03.558Z,5.97
2023-03-04T09:31:30.972Z,5.57
2023-03-04T09:33:59.197Z,5.75
2023-03-04T09:36:27.745Z,6.35
2023-03-04T09:38:54.713Z,5.38
2023-03-04T09:41:29.808Z,5.35
2023-03-04T09:43:57.414Z,5.25
2023-03-04T09:46:45.065Z,5.43
2023-03-04T09:49:13.910Z,5.18
2023-03-04T09:52:10.194Z,5.03
2023-03-04T09:55:11.058Z,5.18
2023-03-04T09:58:05.207Z,4.25
2023-03-04T10:00:54.952Z,4.25
2023-03-04T10:03:27.904Z,4.57
2023-03-04T10:06:02.959Z,5.15
2023-03-04T10:08:36.824Z,4.35
2023-03-04T10:11:16.546Z,4.47
2023-03-04T10:13:47.281Z,5.55
2023-03-04T10:16:20.343Z,4.53
2023-03-04T10:18:56.214Z,4.70
2023-03-04T10:21:42.884Z,4.80
2023-03-04T10:24:14.806Z,4.20
2023-03-04T10:26:48.532Z,4.28
2023-03-04T10:29:22.216Z,4.68
2023-03-04T10:31:49.887Z,3.13
2023-03-04T10:34:17.853Z,4.10
2023-03-04T10:36:55.510Z,4.90
2023-03-04T10:39:27.711Z,5.70
2023-03-04T10:42:05.554Z,5.40
2023-03-04T10:44:35.623Z,4.63
2023-03-04T10:47:04.676Z,5.30
2023-03-04T10:49:36.545Z,5.03
2023-03-04T10:52:15.477Z,3.78
2023-03-04T10:54:52.431Z,4.22
2023-03-04T10:57:31.957Z,3.80
2023-03-04T11:00:00.505Z,3.63
2023-03-04T11:02:30.506Z,4.18
2023-03-04T11:05:05.405Z,3.58
2023-03-04T11:07:52.227Z,3.78
2023-03-04T11:10:30.739Z,3.33
2023-03-04T11:13:02.202Z,4.78
2023-03-04T11:15:32.620Z,3.33
2023-03-04T11:18:14.050Z,4.28
2023-03-04T11:20:49.989Z,4.03
2023-03-04T11:23:23.672Z,4.47
2023-03-04T11:25:57.710Z,3.95
2023-03-04T11:28:47.331Z,4.43
2023-03-04T11:31:28.108Z,4.80
2023-03-04T11:34:10.355Z,5.70
2023-03-04T11:37:05.245Z,8.10
2023-03-04T11:40:05.860Z,5.38
2023-03-04T11:42:49.088Z,7.78
2023-03-04T11:45:34.121Z,11.05
2023-03-04T11:48:17.700Z,9.00
2023-03-04T11:51:19.457Z,6.57
2023-03-04T11:54:00.228Z,4.88
2023-03-04T11:56:43.810Z,4.72
2023-03-04T11:59:26.125Z,5.20
2023-03-04T12:02:13.017Z,5.50
2023-03-04T12:04:39.695Z,5.55
2023-03-04T12:07:22.822Z,3.90
2023-03-04T12:10:25.614Z,5.13
2023-03-04T12:13:21.093Z,5.28
2023-03-04T12:16:01.364Z,5.97
2023-03-04T12:18:35.409Z,4.82
2023-03-04T12:21:23.828Z,4.20
2023-03-04T12:24:21.651Z,3.53
2023-03-04T12:27:26.118Z,5.65
2023-03-04T12:30:06.404Z,3.83
2023-03-04T12:33:00.379Z,5.30
2023-03-04T12:35:30.082Z,4.43
2023-03-04T12:38:18.646Z,4.07
2023-03-04T12:41:12.546Z,3.95
2023-03-04T12:44:02.130Z,4.00
2023-03-04T12:46:56.513Z,3.55
2023-03-04T12:49:39.619Z,4.00
2023-03-04T12:52:37.071Z,5.82
2023-03-04T12:55:11.945Z,5.88
2023-03-04T12:57:42.173Z,5.72
2023-03-04T13:00:27.485Z,4.68
2023-03-04T13:03:14.524Z,3.97
2023-03-04T13:05:47.366Z,4.47
2023-03-04T13:08:30.576Z,2.75
2023-03-04T13:11:26.580Z,2.63
2023-03-04T13:14:06.040Z,2.55
2023-03-04T13:16:39.054Z,2.92
2023-03-04T13:19:47.150Z,2.83
2023-03-04T13:22:34.720Z,3.75
2023-03-04T13:25:42.963Z,3.47
2023-03-04T13:28:09.777Z,3.88
2023-03-04T13:30:38.217Z,3.80
2023-03-04T13:33:17.783Z,3.03
2023-03-04T13:35:52.013Z,3.35
2023-03-04T13:38:21.950Z,2.97
2023-03-04T13:41:15.750Z,4.97
2023-03-04T13:43:53.675Z,3.33
2023-03-04T13:46:20.523Z,2.92
2023-03-04T13:48:50.561Z,3.08
2023-03-04T13:51:29.784Z,2.85
2023-03-04T13:53:59.712Z,3.40
2023-03-04T13:56:43.512Z,3.40
2023-03-04T13:59:29.652Z,2.83
2023-03-04T14:02:02.182Z,3.20
2023-03-04T14:04:40.718Z,2.90
2023-03-04T14:07:27.162Z,6.00
2023-03-04T14:10:25.971Z,5.00
2023-03-04T14:13:00.776Z,4.47
2023-03-04T14:15:35.939Z,4.88
2023-03-04T14:18:04.803Z,5.97
2023-03-04T14:20:33.271Z,4.45
2023-03-04T14:23:03.879Z,3.08
2023-03-04T14:25:35.447Z,2.70
2023-03-04T14:28:13.915Z,3.00
2023-03-04T14:30:43.996Z,2.50
2023-03-04T14:33:44.407Z,2.70
2023-03-04T14:36:18.350Z,2.83
2023-03-04T14:38:51.113Z,2.08
2023-03-04T14:41:21.654Z,1.80
2023-03-04T14:44:03.623Z,2.45
2023-03-04T14:46:47.529Z,2.50
2023-03-04T14:49:19.058Z,2.33
2023-03-04T14:51:57.836Z,2.17
2023-03-04T14:54:41.055Z,2.45
2023-03-04T14:57:21.259Z,2.00
2023-03-04T14:59:48.182Z,2.30
2023-03-04T15:02:33.337Z,2.20
2023-03-04T15:05:26.269Z,2.38
2023-03-04T15:08:20.873Z,2.97
2023-03-04T15:11:02.342Z,3.35
2023-03-04T15:13:54.758Z,2.60
2023-03-04T15:16:25.680Z,3.00
2023-03-04T15:19:02.437Z,2.75
2023-03-04T15:21:38.502Z,2.25
2023-03-04T15:24:07.051Z,2.15
2023-03-04T15:26:38.671Z,1.92
2023-03-04T15:29:19.682Z,2.10
2023-03-04T15:31:50.658Z,2.83
2023-03-04T15:34:22.042Z,3.20
2023-03-04T15:36:52.195Z,3.47
2023-03-04T15:39:21.751Z,2.75
2023-03-04T15:41:50.084Z,2.42
2023-03-04T15:44:17.395Z,2.75
2023-03-04T15:46:44.341Z,2.92
2023-03-04T15:49:11.959Z,3.03
2023-03-04T15:51:38.886Z,3.13
2023-03-04T15:54:10.946Z,3.25
2023-03-04T15:56:39.074Z,3.42
2023-03-04T15:59:17.055Z,3.38
2023-03-04T16:01:44.162Z,2.95
2023-03-04T16:04:16.796Z,3.35
2023-03-04T16:06:50.551Z,3.00
2023-03-04T16:09:19.792Z,3.28
2023-03-04T16:11:47.776Z,2.60
2023-03-04T16:14:16.369Z,2.90
2023-03-04T16:16:44.445Z,3.60
2023-03-04T16:19:11.772Z,4.30
2023-03-04T16:21:38.756Z,3.60
2023-03-04T16:24:06.060Z,3.45
2023-03-04T16:26:33.381Z,3.30
2023-03-04T16:29:01.597Z,2.97
2023-03-04T16:31:31.048Z,4.43
2023-03-04T16:33:57.878Z,3.38
2023-03-04T16:36:27.199Z,3.00
2023-03-04T16:39:02.486Z,3.45
2023-03-04T16:41:32.609Z,3.45
2023-03-04T16:44:00.897Z,3.30
2023-03-04T16:46:30.007Z,3.25
2023-03-04T16:48:56.956Z,3.40
2023-03-04T16:51:25.402Z,3.35
2023-03-04T16:54:00.384Z,3.03
2023-03-04T16:56:27.563Z,2.92
2023-03-04T16:58:54.509Z,2.97
2023-03-04T17:01:27.593Z,3.60
2023-03-04T17:04:01.031Z,3.33
2023-03-04T17:06:34.715Z,3.50
2023-03-04T17:09:01.617Z,3.08
2023-03-04T17:11:29.324Z,3.40
2023-03-04T17:13:56.446Z,3.33
2023-03-04T17:16:24.754Z,3.40
2023-03-04T17:18:51.689Z,3.95
2023-03-04T17:21:21.309Z,3.97
2023-03-04T17:23:48.350Z,4.63
2023-03-04T17:26:16.784Z,4.90
2023-03-04T17:28:43.549Z,5.82
2023-03-04T17:31:17.556Z,8.52
2023-03-04T17:33:46.290Z,7.85
2023-03-04T17:36:14.129Z,7.18
2023-03-04T17:38:43.330Z,5.80
2023-03-04T17:41:16.014Z,6.90
2023-03-04T17:43:44.626Z,6.70
2023-03-04T17:46:17.993Z,5.68
2023-03-04T17:48:44.872Z,5.20
2023-03-04T17:51:13.441Z,5.07
2023-03-04T17:53:40.643Z,5.55
2023-03-04T17:56:10.594Z,5.75
2023-03-04T17:58:37.911Z,6.18
2023-03-04T18:01:17.934Z,6.10
2023-03-04T18:03:44.804Z,6.47
2023-03-04T18:06:16.157Z,8.07
2023-03-04T18:08:43.414Z,6.38
2023-03-04T18:11:11.979Z,6.70
2023-03-04T18:13:40.312Z,7.93
2023-03-04T18:16:09.520Z,7.47
2023-03-04T18:18:38.208Z,7.82
2023-03-04T18:21:05.439Z,7.63
2023-03-04T18:23:33.183Z,7.38
2023-03-04T18:26:01.714Z,6.57
2023-03-04T18:28:28.877Z,7.80
2023-03-04T18:30:56.385Z,6.95
2023-03-04T18:33:23.289Z,7.50
2023-03-04T18:35:50.160Z,7.90
2023-03-04T18:38:19.087Z,8.40
2023-03-04T18:40:45.992Z,8.85
2023-03-04T18:43:13.043Z,8.90
2023-03-04T18:45:39.820Z,9.00
2023-03-04T18:48:06.833Z,9.90
2023-03-04T18:50:34.933Z,9.25
2023-03-04T18:53:03.340Z,9.25
2023-03-04T18:55:30.711Z,9.63
2023-03-04T18:57:58.728Z,9.68
2023-03-04T19:00:25.910Z,9.95
2023-03-04T19:03:10.040Z,9.82
2023-03-04T19:05:37.104Z,9.40
2023-03-04T19:08:05.287Z,9.18
2023-03-04T19:10:32.317Z,9.57
2023-03-04T19:12:59.718Z,8.60
2023-03-04T19:15:26.853Z,9.07
2023-03-04T19:17:53.660Z,9.15
2023-03-04T19:20:20.604Z,9.13
2023-03-04T19:22:47.865Z,8.57
2023-03-04T19:25:14.740Z,9.32
2023-03-04T19:27:42.895Z,9.43
2023-03-04T19:30:11.189Z,9.75
2023-03-04T19:32:40.457Z,10.60
2023-03-04T19:35:07.448Z,12.95
2023-03-04T19:37:34.220Z,11.38
2023-03-04T19:40:01.023Z,11.75
2023-03-04T19:42:27.951Z,11.27
2023-03-04T19:44:54.720Z,11.68
2023-03-04T19:47:22.323Z,12.85
2023-03-04T19:49:49.143Z,11.52
2023-03-04T19:52:15.969Z,11.63
2023-03-04T19:54:42.695Z,12.85
2023-03-04T19:57:09.431Z,10.93
2023-03-04T19:59:36.294Z,11.02
2023-03-04T20:02:03.446Z,10.85
2023-03-04T20:04:30.489Z,9.85
2023-03-04T20:06:57.324Z,10.25
2023-03-04T20:09:25.255Z,10.40
2023-03-04T20:11:58.905Z,10.60
2023-03-04T20:16:53.481Z,9.80
2023-03-04T20:19:20.360Z,9.70
2023-03-04T20:21:48.494Z,10.23
2023-03-04T20:24:15.437Z,9.63
2023-03-04T20:26:44.441Z,9.13
2023-03-04T20:29:12.813Z,9.23
2023-03-04T20:31:39.801Z,9.65
2023-03-04T20:34:08.679Z,9.77
2023-03-04T20:36:36.178Z,8.93
2023-03-04T20:39:08.315Z,8.73
2023-03-04T20:41:42.098Z,9.25
2023-03-04T20:44:08.887Z,8.73
2023-03-04T20:46:46.321Z,8.20
2023-03-04T20:49:22.256Z,7.90
2023-03-04T20:51:50.208Z,8.95
2023-03-04T20:54:17.432Z,10.07
2023-03-04T20:56:44.396Z,10.52
2023-03-04T20:59:14.105Z,8.98
2023-03-04T21:01:43.104Z,8.65
2023-03-04T21:04:10.016Z,6.85
2023-03-04T21:06:38.758Z,6.55
2023-03-04T21:09:09.261Z,7.57
2023-03-04T21:11:40.467Z,6.75
2023-03-04T21:14:12.366Z,6.78
2023-03-04T21:16:39.353Z,7.63
2023-03-04T21:19:06.153Z,7.18
2023-03-04T21:21:33.039Z,7.18
2023-03-04T21:23:59.817Z,6.68
2023-03-04T21:26:26.910Z,7.20
2023-03-04T21:28:54.633Z,6.45
2023-03-04T21:31:25.992Z,5.70
2023-03-04T21:50:36.720Z,4.77
2023-03-04T21:53:04.701Z,4.90
2023-03-04T21:55:31.926Z,5.22
2023-03-04T21:57:58.685Z,4.70
2023-03-04T22:00:25.876Z,4.35
2023-03-04T22:02:52.672Z,4.53
2023-03-04T22:05:19.714Z,4.22
2023-03-04T22:07:46.780Z,4.72
2023-03-04T22:10:13.548Z,4.45
2023-03-04T22:12:41.603Z,4.97
2023-03-04T22:15:09.273Z,4.57
2023-03-04T22:17:36.022Z,4.30
2023-03-04T22:20:07.122Z,4.53
2023-03-04T22:22:33.887Z,4.57
2023-03-04T22:25:00.806Z,3.70
2023-03-04T22:27:27.577Z,4.15
2023-03-04T22:29:57.188Z,3.90
2023-03-04T22:32:24.186Z,3.53
2023-03-04T22:34:51.112Z,3.30
2023-03-04T22:37:17.944Z,3.38
2023-03-04T22:39:44.647Z,3.47
2023-03-04T22:42:11.543Z,3.10
2023-03-04T22:44:38.296Z,3.15
2023-03-04T22:47:05.257Z,3.78
2023-03-04T22:49:33.303Z,3.53
2023-03-04T22:52:01.425Z,3.08
2023-03-04T22:54:29.675Z,3.05
2023-03-04T22:56:56.512Z,2.80
2023-03-04T22:59:24.948Z,2.80
2023-03-04T23:01:51.726Z,2.53
2023-03-04T23:04:18.576Z,2.70
2023-03-04T23:06:45.472Z,2.40
2023-03-04T23:09:12.276Z,2.78
2023-03-04T23:11:39.640Z,3.50
2023-03-04T23:14:08.027Z,3.70
2023-03-04T23:16:38.691Z,2.63
2023-03-04T23:19:06.372Z,2.88
2023-03-04T23:21:34.039Z,2.78
2023-03-04T23:24:06.852Z,2.47
2023-03-04T23:26:36.655Z,3.00
2023-03-04T23:29:06.397Z,2.25
2023-03-04T23:31:34.657Z,2.63
2023-03-04T23:34:02.883Z,2.38
2023-03-04T23:36:33.057Z,2.40
2023-03-04T23:39:00.775Z,2.60
2023-03-04T23:41:29.864Z,2.30
2023-03-04T23:43:59.211Z,2.38
2023-03-04T23:46:27.898Z,2.85
2023-03-04T23:48:55.317Z,2.85
2023-03-04T23:51:25.089Z,2.15
2023-03-04T23:53:52.244Z,2.38
2023-03-04T23:56:22.181Z,3.33
2023-03-04T23:58:49.829Z,2.60
